createdAt,value
2022-09-25T00:00:58.847Z,3.42
2022-09-25T00:03:28.423Z,3.42
2022-09-25T00:06:01.945Z,3.53
2022-09-25T00:08:29.497Z,3.65
2022-09-25T00:10:58.400Z,3.88
2022-09-25T00:13:26.068Z,3.40
2022-09-25T00:15:54.913Z,3.70
2022-09-25T00:18:43.269Z,3.75
2022-09-25T00:21:12.467Z,3.63
2022-09-25T00:23:40.016Z,3.85
2022-09-25T00:26:09.300Z,3.70
2022-09-25T00:28:37.058Z,3.63
2022-09-25T00:31:05.360Z,3.78
2022-09-25T00:33:33.374Z,3.45
2022-09-25T00:36:03.813Z,3.70
2022-09-25T00:38:31.652Z,3.45
2022-09-25T00:40:59.335Z,3.60
2022-09-25T00:43:39.315Z,3.33
2022-09-25T00:46:09.837Z,3.67
2022-09-25T00:48:37.726Z,3.30
2022-09-25T00:51:05.437Z,3.33
2022-09-25T00:53:34.261Z,3.50
2022-09-25T00:56:02.240Z,3.50
2022-09-25T00:58:29.771Z,3.40
2022-09-25T01:00:59.117Z,3.17
2022-09-25T01:03:27.391Z,3.70
2022-09-25T01:05:55.439Z,3.30
2022-09-25T01:08:24.675Z,3.47
2022-09-25T01:10:52.248Z,3.38
2022-09-25T01:13:20.212Z,3.38
2022-09-25T01:15:50.205Z,3.35
2022-09-25T01:18:25.642Z,3.25
2022-09-25T01:21:07.602Z,3.20
2022-09-25T01:23:51.042Z,3.55
2022-09-25T01:26:32.297Z,3.25
2022-09-25T01:29:07.321Z,3.40
2022-09-25T01:31:36.281Z,3.35
2022-09-25T01:34:07.169Z,3.47
2022-09-25T01:36:36.908Z,3.15
2022-09-25T01:39:07.342Z,3.53
2022-09-25T01:41:39.024Z,3.25
2022-09-25T01:44:10.005Z,3.53
2022-09-25T01:46:39.926Z,3.17
2022-09-25T01:49:09.367Z,3.47
2022-09-25T01:51:38.362Z,3.28
2022-09-25T01:54:08.495Z,3.17
2022-09-25T01:56:39.369Z,3.13
2022-09-25T01:59:09.890Z,3.33
2022-09-25T02:01:39.483Z,3.28
2022-09-25T02:04:09.120Z,3.20
2022-09-25T02:06:36.730Z,3.60
2022-09-25T02:09:06.329Z,3.17
2022-09-25T02:11:35.688Z,3.20
2022-09-25T02:14:05.402Z,3.13
2022-09-25T02:16:36.493Z,2.90
2022-09-25T02:19:21.989Z,3.10
2022-09-25T02:21:51.762Z,3.30
2022-09-25T02:24:21.839Z,3.22
2022-09-25T02:26:49.660Z,3.33
2022-09-25T02:29:17.253Z,3.10
2022-09-25T02:31:49.298Z,3.17
2022-09-25T02:34:17.134Z,3.05
2022-09-25T02:36:45.129Z,3.42
2022-09-25T02:39:13.356Z,3.25
2022-09-25T02:42:06.250Z,3.00
2022-09-25T02:44:37.709Z,3.22
2022-09-25T02:47:14.567Z,2.80
2022-09-25T02:49:47.065Z,3.22
2022-09-25T02:52:16.573Z,3.22
2022-09-25T02:54:46.457Z,3.00
2022-09-25T02:57:15.379Z,3.30
2022-09-25T02:59:44.242Z,3.30
2022-09-25T03:02:13.364Z,3.10
2022-09-25T03:04:40.956Z,3.10
2022-09-25T03:07:08.494Z,3.20
2022-09-25T03:09:36.340Z,3.70
2022-09-25T03:12:04.345Z,3.00
2022-09-25T03:14:31.936Z,3.20
2022-09-25T03:17:00.876Z,2.90
2022-09-25T03:19:29.952Z,3.47
2022-09-25T03:21:57.480Z,3.20
2022-09-25T03:24:25.607Z,3.00
2022-09-25T03:26:53.889Z,2.90
2022-09-25T03:29:21.610Z,2.83
2022-09-25T03:31:49.189Z,2.75
2022-09-25T03:34:17.679Z,3.17
2022-09-25T03:36:47.523Z,2.70
2022-09-25T03:39:17.663Z,2.95
2022-09-25T03:41:45.863Z,3.00
2022-09-25T03:44:13.508Z,3.10
2022-09-25T03:46:41.104Z,2.92
2022-09-25T03:49:10.465Z,3.00
2022-09-25T03:51:38.846Z,2.95
2022-09-25T03:54:07.786Z,3.08
2022-09-25T03:56:35.520Z,2.92
2022-09-25T03:59:03.068Z,2.78
2022-09-25T04:01:30.898Z,2.90
2022-09-25T04:04:03.208Z,2.78
2022-09-25T04:06:30.926Z,3.05
2022-09-25T04:08:58.450Z,2.80
2022-09-25T04:11:27.411Z,2.97
2022-09-25T04:13:57.256Z,3.00
2022-09-25T04:16:24.838Z,2.78
2022-09-25T04:18:52.539Z,3.05
2022-09-25T04:21:20.085Z,2.80
2022-09-25T04:24:07.628Z,3.03
2022-09-25T04:26:36.523Z,2.80
2022-09-25T04:29:04.081Z,2.63
2022-09-25T04:31:31.723Z,2.60
2022-09-25T04:33:58.326Z,3.03
2022-09-25T04:36:26.012Z,2.67
2022-09-25T04:38:53.535Z,2.78
2022-09-25T04:41:21.121Z,3.08
2022-09-25T04:43:50.053Z,2.95
2022-09-25T04:46:22.405Z,2.80
2022-09-25T04:48:50.178Z,2.70
2022-09-25T04:51:17.716Z,2.80
2022-09-25T04:53:45.246Z,2.78
2022-09-25T04:56:16.083Z,2.88
2022-09-25T04:58:45.672Z,3.10
2022-09-25T05:01:14.617Z,2.72
2022-09-25T05:03:42.700Z,2.53
2022-09-25T05:06:10.461Z,2.70
2022-09-25T05:08:38.040Z,2.63
2022-09-25T05:11:05.616Z,2.65
2022-09-25T05:13:33.453Z,2.65
2022-09-25T05:16:01.120Z,2.70
2022-09-25T05:18:30.086Z,2.75
2022-09-25T05:20:57.921Z,2.58
2022-09-25T05:23:25.594Z,2.83
2022-09-25T05:25:53.866Z,2.60
2022-09-25T05:28:24.638Z,2.60
2022-09-25T05:30:52.225Z,2.70
2022-09-25T05:33:19.953Z,2.47
2022-09-25T05:35:49.458Z,2.70
2022-09-25T05:38:16.973Z,2.80
2022-09-25T05:40:44.591Z,2.60
2022-09-25T05:43:12.773Z,2.70
2022-09-25T05:45:40.418Z,2.90
2022-09-25T05:48:08.792Z,2.63
2022-09-25T05:50:36.384Z,2.83
2022-09-25T05:53:05.953Z,2.70
2022-09-25T05:55:33.536Z,2.63
2022-09-25T05:58:01.914Z,2.70
2022-09-25T06:00:29.953Z,2.42
2022-09-25T06:02:57.624Z,2.80
2022-09-25T06:05:25.375Z,2.50
2022-09-25T06:07:53.930Z,2.80
2022-09-25T06:10:22.813Z,2.60
2022-09-25T06:12:50.711Z,2.80
2022-09-25T06:15:19.003Z,2.70
2022-09-25T06:17:46.553Z,2.63
2022-09-25T06:20:16.279Z,2.50
2022-09-25T06:22:44.613Z,2.80
2022-09-25T06:25:12.172Z,2.53
2022-09-25T06:27:41.054Z,2.58
2022-09-25T06:30:09.248Z,2.50
2022-09-25T06:32:38.069Z,2.88
2022-09-25T06:35:06.496Z,2.55
2022-09-25T06:37:34.083Z,2.60
2022-09-25T06:40:02.671Z,2.95
2022-09-25T06:42:30.296Z,2.65
2022-09-25T06:44:59.183Z,2.80
2022-09-25T06:47:27.060Z,2.30
2022-09-25T06:49:54.709Z,2.75
2022-09-25T06:52:22.305Z,2.63
2022-09-25T06:54:49.898Z,2.58
2022-09-25T06:57:17.485Z,2.45
2022-09-25T06:59:45.036Z,2.50
2022-09-25T07:02:31.426Z,2.63
2022-09-25T07:05:00.351Z,2.40
2022-09-25T07:07:27.914Z,2.30
2022-09-25T07:09:55.481Z,2.55
2022-09-25T07:12:23.079Z,2.58
2022-09-25T07:14:50.646Z,2.40
2022-09-25T07:17:19.688Z,2.50
2022-09-25T07:19:47.269Z,2.50
2022-09-25T07:22:14.947Z,2.40
2022-09-25T07:24:42.553Z,2.60
2022-09-25T07:27:10.195Z,2.58
2022-09-25T07:29:37.855Z,2.30
2022-09-25T07:32:05.579Z,2.75
2022-09-25T07:34:37.527Z,2.42
2022-09-25T07:37:05.049Z,2.30
2022-09-25T07:39:32.596Z,2.60
2022-09-25T07:42:00.157Z,2.33
2022-09-25T07:44:29.490Z,2.55
2022-09-25T07:47:00.794Z,2.42
2022-09-25T07:49:28.886Z,2.50
2022-09-25T07:51:57.762Z,2.50
2022-09-25T07:54:25.796Z,2.33
2022-09-25T07:56:54.314Z,2.63
2022-09-25T07:59:21.884Z,2.40
2022-09-25T08:01:53.719Z,2.40
2022-09-25T08:04:22.133Z,2.35
2022-09-25T08:06:49.678Z,2.50
2022-09-25T08:09:18.588Z,2.28
2022-09-25T08:11:46.153Z,2.60
2022-09-25T08:14:15.718Z,2.47
2022-09-25T08:16:43.822Z,2.30
2022-09-25T08:19:11.450Z,2.25
2022-09-25T08:21:39.005Z,2.30
2022-09-25T08:24:06.708Z,2.40
2022-09-25T08:26:36.632Z,2.53
2022-09-25T08:29:04.865Z,2.35
2022-09-25T08:31:32.733Z,2.38
2022-09-25T08:34:21.190Z,2.38
2022-09-25T08:36:49.189Z,2.50
2022-09-25T08:39:16.792Z,2.40
2022-09-25T08:41:48.724Z,2.40
2022-09-25T08:44:22.450Z,2.28
2022-09-25T08:47:09.559Z,2.50
2022-09-25T08:50:01.661Z,2.40
2022-09-25T08:52:32.004Z,2.35
2022-09-25T08:54:59.625Z,2.67
2022-09-25T08:57:31.606Z,2.38
2022-09-25T09:00:02.460Z,2.30
2022-09-25T09:02:38.495Z,2.35
2022-09-25T09:05:08.158Z,2.55
2022-09-25T09:07:37.089Z,2.75
2022-09-25T09:10:08.245Z,2.35
2022-09-25T09:12:44.900Z,2.50
2022-09-25T09:15:19.196Z,2.30
2022-09-25T09:17:46.787Z,2.47
2022-09-25T09:20:17.803Z,2.35
2022-09-25T09:22:48.630Z,2.30
2022-09-25T09:25:29.185Z,2.30
2022-09-25T09:28:23.795Z,2.35
2022-09-25T09:30:56.918Z,2.60
2022-09-25T09:33:32.169Z,2.30
2022-09-25T09:36:05.807Z,2.50
2022-09-25T09:38:39.364Z,2.90
2022-09-25T09:41:15.945Z,2.40
2022-09-25T09:43:54.930Z,2.47
2022-09-25T09:46:28.777Z,2.15
2022-09-25T09:49:03.441Z,2.40
2022-09-25T09:51:33.303Z,2.20
2022-09-25T09:54:02.577Z,2.17
2022-09-25T09:56:31.604Z,2.25
2022-09-25T09:59:01.610Z,2.17
2022-09-25T10:01:41.996Z,2.70
2022-09-25T10:04:11.533Z,2.17
2022-09-25T10:06:39.952Z,2.13
2022-09-25T10:09:08.735Z,2.40
2022-09-25T10:11:37.452Z,2.50
2022-09-25T10:14:06.442Z,2.75
2022-09-25T10:16:34.030Z,2.58
2022-09-25T10:19:04.961Z,2.92
2022-09-25T10:21:34.194Z,2.85
2022-09-25T10:24:03.257Z,2.90
2022-09-25T10:26:31.935Z,3.33
2022-09-25T10:29:00.072Z,3.13
2022-09-25T10:31:31.473Z,3.00
2022-09-25T10:34:01.107Z,3.03
2022-09-25T10:36:37.050Z,3.03
2022-09-25T10:39:31.411Z,3.20
2022-09-25T10:41:52.819Z,3.10
2022-09-25T10:44:22.644Z,3.10
2022-09-25T10:47:09.254Z,3.10
2022-09-25T10:50:04.893Z,3.40
2022-09-25T10:52:47.499Z,2.88
2022-09-25T10:55:17.365Z,2.85
2022-09-25T10:57:46.262Z,3.10
2022-09-25T11:00:21.579Z,3.40
2022-09-25T11:02:53.232Z,3.22
2022-09-25T11:05:27.777Z,3.15
2022-09-25T11:07:56.119Z,2.83
2022-09-25T11:10:24.481Z,2.80
2022-09-25T11:12:52.109Z,2.78
2022-09-25T11:15:20.848Z,3.25
2022-09-25T11:17:51.350Z,2.88
2022-09-25T11:20:29.807Z,2.92
2022-09-25T11:23:07.417Z,3.10
2022-09-25T11:25:37.834Z,2.70
2022-09-25T11:28:09.751Z,2.95
2022-09-25T11:30:40.941Z,3.20
2022-09-25T11:33:13.106Z,3.00
2022-09-25T11:35:45.242Z,2.90
2022-09-25T11:38:18.016Z,2.97
2022-09-25T11:41:10.882Z,2.92
2022-09-25T11:43:58.471Z,3.50
2022-09-25T11:46:31.885Z,2.97
2022-09-25T11:49:12.373Z,3.35
2022-09-25T11:51:53.201Z,3.13
2022-09-25T11:54:33.922Z,3.03
2022-09-25T11:57:05.500Z,3.17
2022-09-25T11:59:41.093Z,3.10
2022-09-25T12:02:17.236Z,3.03
2022-09-25T12:04:58.424Z,2.80
2022-09-25T12:07:39.823Z,2.92
2022-09-25T12:10:15.893Z,2.70
2022-09-25T12:12:49.934Z,3.13
2022-09-25T12:15:21.249Z,2.80
2022-09-25T12:17:53.418Z,3.17
2022-09-25T12:20:26.009Z,2.80
2022-09-25T12:23:01.699Z,2.80
2022-09-25T12:25:37.514Z,2.80
2022-09-25T12:28:08.659Z,2.78
2022-09-25T12:30:39.354Z,2.53
2022-09-25T12:33:14.353Z,2.80
2022-09-25T12:35:48.296Z,2.90
2022-09-25T12:38:22.513Z,2.78
2022-09-25T12:40:52.207Z,2.97
2022-09-25T12:43:24.079Z,3.38
2022-09-25T12:45:53.712Z,2.60
2022-09-25T12:48:23.797Z,2.90
2022-09-25T12:50:56.374Z,2.70
2022-09-25T12:53:28.501Z,2.75
2022-09-25T12:55:59.670Z,3.00
2022-09-25T12:58:38.634Z,2.80
2022-09-25T13:01:07.879Z,2.97
2022-09-25T13:03:43.392Z,2.80
2022-09-25T13:06:15.484Z,2.75
2022-09-25T13:08:48.648Z,3.20
2022-09-25T13:11:19.568Z,2.97
2022-09-25T13:13:48.993Z,2.38
2022-09-25T13:16:16.861Z,2.60
2022-09-25T13:18:48.462Z,2.60
2022-09-25T13:21:27.466Z,2.80
2022-09-25T13:23:55.201Z,2.88
2022-09-25T13:26:26.668Z,2.83
2022-09-25T13:28:57.417Z,2.63
2022-09-25T13:31:27.099Z,2.72
2022-09-25T13:33:56.770Z,2.90
2022-09-25T13:36:37.949Z,3.10
2022-09-25T13:39:24.245Z,3.30
2022-09-25T13:41:55.153Z,2.85
2022-09-25T13:45:08.015Z,3.15
2022-09-25T13:48:07.150Z,3.97
2022-09-25T13:50:39.873Z,3.50
2022-09-25T13:53:24.788Z,3.60
2022-09-25T13:56:14.980Z,3.60
2022-09-25T13:59:28.182Z,3.40
2022-09-25T14:02:00.982Z,3.78
2022-09-25T14:04:38.115Z,3.30
2022-09-25T14:07:11.885Z,3.10
2022-09-25T14:09:43.829Z,2.80
2022-09-25T14:12:19.277Z,3.55
2022-09-25T14:14:52.617Z,3.40
2022-09-25T14:17:20.997Z,3.25
2022-09-25T14:19:52.782Z,3.05
2022-09-25T14:22:24.961Z,3.15
2022-09-25T14:24:54.119Z,3.00
2022-09-25T14:27:42.086Z,3.40
2022-09-25T14:30:13.794Z,2.92
2022-09-25T14:32:55.556Z,3.03
2022-09-25T14:35:34.290Z,3.00
2022-09-25T14:38:11.384Z,3.00
2022-09-25T14:40:41.867Z,3.10
2022-09-25T14:43:20.811Z,2.97
2022-09-25T14:45:58.403Z,3.00
2022-09-25T14:48:27.358Z,2.90
2022-09-25T14:50:56.487Z,3.05
2022-09-25T14:53:27.590Z,2.90
2022-09-25T14:55:56.457Z,3.08
2022-09-25T14:58:27.699Z,2.88
2022-09-25T15:00:56.650Z,2.97
2022-09-25T15:03:27.272Z,2.80
2022-09-25T15:05:55.262Z,2.97
2022-09-25T15:08:24.353Z,2.80
2022-09-25T15:11:02.889Z,2.80
2022-09-25T15:13:33.501Z,2.70
2022-09-25T15:16:18.628Z,2.65
2022-09-25T15:18:51.200Z,3.30
2022-09-25T15:21:26.230Z,3.33
2022-09-25T15:23:54.338Z,2.72
2022-09-25T15:26:23.301Z,3.28
2022-09-25T15:28:51.712Z,2.97
2022-09-25T15:31:20.274Z,2.80
2022-09-25T15:34:02.464Z,2.83
2022-09-25T15:36:30.109Z,2.97
2022-09-25T15:39:00.058Z,2.95
2022-09-25T15:41:29.639Z,3.05
2022-09-25T15:44:12.535Z,2.90
2022-09-25T15:46:40.989Z,3.10
2022-09-25T15:49:08.691Z,3.50
2022-09-25T15:51:39.914Z,3.20
2022-09-25T15:54:24.214Z,3.05
2022-09-25T15:56:55.193Z,3.08
2022-09-25T15:59:26.038Z,2.97
2022-09-25T16:02:19.676Z,2.83
2022-09-25T16:04:50.030Z,3.05
2022-09-25T16:07:25.338Z,2.72
2022-09-25T16:09:55.026Z,3.08
2022-09-25T16:12:28.817Z,2.80
2022-09-25T16:14:57.658Z,2.53
2022-09-25T16:17:32.933Z,2.83
2022-09-25T16:20:02.909Z,3.38
2022-09-25T16:22:41.129Z,3.00
2022-09-25T16:25:22.419Z,2.75
2022-09-25T16:27:51.734Z,2.85
2022-09-25T16:30:22.272Z,3.15
2022-09-25T16:32:52.118Z,3.10
2022-09-25T16:35:26.025Z,3.90
2022-09-25T16:37:56.379Z,3.00
2022-09-25T16:40:29.017Z,3.35
2022-09-25T16:42:58.425Z,3.65
2022-09-25T16:45:29.651Z,3.42
2022-09-25T16:47:58.841Z,3.50
2022-09-25T16:50:32.057Z,3.22
2022-09-25T16:53:00.756Z,3.10
2022-09-25T16:55:34.126Z,3.30
2022-09-25T16:58:04.148Z,3.38
2022-09-25T17:00:32.394Z,3.30
2022-09-25T17:03:01.793Z,3.17
2022-09-25T17:05:30.817Z,3.20
2022-09-25T17:08:00.220Z,2.90
2022-09-25T17:10:29.176Z,3.17
2022-09-25T17:12:57.325Z,3.30
2022-09-25T17:15:30.175Z,3.42
2022-09-25T17:17:58.292Z,3.03
2022-09-25T17:20:26.742Z,3.03
2022-09-25T17:22:55.485Z,3.03
2022-09-25T17:25:36.567Z,3.20
2022-09-25T17:28:04.848Z,3.03
2022-09-25T17:30:33.804Z,2.95
2022-09-25T17:33:05.058Z,2.95
2022-09-25T17:35:39.143Z,2.90
2022-09-25T17:38:06.906Z,2.97
2022-09-25T17:40:34.561Z,3.03
2022-09-25T17:43:02.317Z,3.00
2022-09-25T17:45:37.025Z,3.00
2022-09-25T17:48:04.799Z,2.95
2022-09-25T17:50:35.778Z,3.05
2022-09-25T17:53:04.999Z,2.70
2022-09-25T17:55:32.671Z,2.75
2022-09-25T17:58:00.237Z,2.92
2022-09-25T18:00:27.916Z,3.00
2022-09-25T18:02:57.092Z,2.97
2022-09-25T18:05:25.835Z,2.83
2022-09-25T18:07:53.458Z,2.95
2022-09-25T18:10:21.062Z,2.92
2022-09-25T18:12:48.802Z,2.80
2022-09-25T18:15:16.722Z,2.60
2022-09-25T18:17:44.338Z,2.95
2022-09-25T18:20:31.292Z,2.75
2022-09-25T18:23:01.891Z,2.90
2022-09-25T18:25:49.850Z,2.70
2022-09-25T18:28:17.577Z,2.80
2022-09-25T18:30:45.271Z,2.90
2022-09-25T18:33:12.963Z,2.95
2022-09-25T18:35:42.803Z,2.60
2022-09-25T18:38:10.433Z,2.88
2022-09-25T18:40:38.052Z,2.60
2022-09-25T18:43:05.661Z,2.70
2022-09-25T18:45:33.713Z,2.88
2022-09-25T18:48:01.551Z,2.58
2022-09-25T18:50:29.326Z,2.80
2022-09-25T18:52:58.617Z,2.53
2022-09-25T18:55:26.234Z,2.75
2022-09-25T18:57:53.797Z,2.80
2022-09-25T19:00:22.041Z,2.40
2022-09-25T19:02:49.709Z,2.55
2022-09-25T19:05:17.392Z,2.70
2022-09-25T19:07:45.064Z,2.40
2022-09-25T19:10:14.053Z,2.70
2022-09-25T19:12:41.675Z,2.58
2022-09-25T19:15:10.471Z,2.67
2022-09-25T19:17:38.050Z,2.55
2022-09-25T19:20:06.440Z,2.75
2022-09-25T19:22:34.037Z,2.45
2022-09-25T19:25:03.858Z,2.70
2022-09-25T19:27:33.151Z,2.20
2022-09-25T19:30:00.731Z,2.40
2022-09-25T19:32:28.350Z,2.33
2022-09-25T19:34:56.056Z,2.47
2022-09-25T19:37:27.510Z,2.60
2022-09-25T19:40:12.523Z,2.38
2022-09-25T19:42:41.470Z,2.38
2022-09-25T19:45:10.152Z,2.90
2022-09-25T19:47:37.702Z,2.60
2022-09-25T19:50:08.622Z,2.72
2022-09-25T19:52:36.214Z,2.60
2022-09-25T19:55:03.781Z,2.03
2022-09-25T19:57:31.342Z,2.15
2022-09-25T20:00:00.389Z,2.22
2022-09-25T20:02:28.009Z,2.67
2022-09-25T20:04:55.749Z,2.30
2022-09-25T20:07:23.387Z,2.47
2022-09-25T20:09:50.950Z,2.60
2022-09-25T20:12:18.541Z,2.80
2022-09-25T20:14:46.049Z,2.65
2022-09-25T20:17:14.928Z,3.03
2022-09-25T20:19:42.673Z,2.42
2022-09-25T20:22:10.294Z,2.80
2022-09-25T20:24:37.847Z,2.75
2022-09-25T20:27:05.412Z,2.78
2022-09-25T20:29:33.071Z,3.03
2022-09-25T20:32:00.777Z,3.38
2022-09-25T20:34:29.937Z,2.60
2022-09-25T20:36:57.477Z,3.00
2022-09-25T20:39:27.282Z,2.70
2022-09-25T20:41:54.886Z,2.80
2022-09-25T20:44:22.487Z,2.65
2022-09-25T20:46:50.109Z,2.40
2022-09-25T20:49:20.014Z,2.85
2022-09-25T20:51:48.993Z,2.28
2022-09-25T20:54:16.612Z,2.65
2022-09-25T20:56:45.311Z,2.70
2022-09-25T20:59:15.297Z,2.92
2022-09-25T21:01:42.937Z,2.80
2022-09-25T21:04:11.258Z,2.70
2022-09-25T21:06:39.940Z,2.70
2022-09-25T21:09:11.017Z,2.70
2022-09-25T21:11:40.265Z,3.30
2022-09-25T21:14:07.914Z,3.10
2022-09-25T21:16:35.610Z,2.40
2022-09-25T21:19:04.726Z,2.47
2022-09-25T21:21:33.174Z,2.60
2022-09-25T21:24:01.235Z,2.75
2022-09-25T21:26:30.543Z,2.70
2022-09-25T21:28:59.168Z,2.90
2022-09-25T21:31:27.771Z,2.60
2022-09-25T21:33:56.085Z,2.88
2022-09-25T21:36:23.804Z,2.40
2022-09-25T21:38:51.510Z,2.70
2022-09-25T21:41:19.942Z,2.55
2022-09-25T21:43:48.971Z,2.40
2022-09-25T21:46:18.169Z,2.70
2022-09-25T21:48:48.401Z,2.90
2022-09-25T21:51:16.169Z,2.60
2022-09-25T21:53:43.795Z,2.42
2022-09-25T21:56:12.280Z,2.60
2022-09-25T21:58:39.949Z,2.53
2022-09-25T22:01:09.837Z,2.40
2022-09-25T22:03:38.676Z,2.85
2022-09-25T22:06:07.497Z,2.60
2022-09-25T22:08:35.225Z,2.55
2022-09-25T22:11:02.774Z,2.70
2022-09-25T22:13:31.405Z,2.60
2022-09-25T22:16:02.137Z,2.65
2022-09-25T22:18:31.012Z,2.45
2022-09-25T22:20:58.584Z,2.45
2022-09-25T22:23:26.278Z,2.50
2022-09-25T22:25:53.860Z,2.33
2022-09-25T22:28:21.543Z,2.45
2022-09-25T22:30:50.272Z,2.70
2022-09-25T22:33:17.886Z,2.75
2022-09-25T22:35:46.837Z,2.30
2022-09-25T22:38:14.384Z,2.65
2022-09-25T22:40:42.011Z,2.50
2022-09-25T22:43:09.580Z,2.50
2022-09-25T22:45:37.206Z,2.47
2022-09-25T22:48:05.110Z,2.40
2022-09-25T22:50:32.640Z,2.25
2022-09-25T22:53:01.498Z,2.70
2022-09-25T22:55:29.085Z,2.38
2022-09-25T22:57:56.647Z,2.40
2022-09-25T23:00:24.221Z,2.28
2022-09-25T23:02:51.809Z,2.25
2022-09-25T23:05:19.465Z,2.13
2022-09-25T23:07:47.143Z,2.38
2022-09-25T23:10:16.178Z,2.30
2022-09-25T23:12:43.915Z,2.13
2022-09-25T23:15:12.017Z,2.53
2022-09-25T23:17:39.557Z,2.50
2022-09-25T23:20:08.502Z,2.53
2022-09-25T23:22:36.082Z,2.53
2022-09-25T23:25:03.605Z,2.22
2022-09-25T23:27:32.476Z,2.28
2022-09-25T23:30:00.038Z,2.30
2022-09-25T23:32:27.558Z,2.20
2022-09-25T23:34:55.093Z,2.30
2022-09-25T23:37:22.605Z,2.28
2022-09-25T23:39:50.154Z,2.47
2022-09-25T23:42:17.685Z,2.25
2022-09-25T23:44:46.568Z,2.50
2022-09-25T23:47:14.094Z,2.50
2022-09-25T23:49:41.633Z,2.10
2022-09-25T23:52:09.226Z,2.10
2022-09-25T23:54:36.761Z,2.15
2022-09-25T23:57:04.545Z,2.22
2022-09-25T23:59:32.048Z,2.35
